Flight Track Log - Related Links

Times and Time Zones

All times are in EDT time to prevent confusion due to time zone crossing. See the ASQ4252 flight status page for this flight to view local times or setup timezone preferences in your user account.

Time Position Orientation Groundspeed Altitude Reporting Facility
EDT Latitude Longitude Course Direction KTS MPH feet Rate Location/Type
Fri 11:08:00 AM 36.5291 -94.3525 351° North  Level FlightAware Approximate
Fri 11:08:03 AM 36.2328 -94.4294 279° West 206 237 7,300  Level Kansas City Center
Fri 11:09:00 AM 36.6165 -94.3721 345° North  Level FlightAware Approximate
Fri 11:09:04 AM 36.3011 -94.4583 341° North 251 289 9,000  Level Kansas City Center
Fri 11:10:00 AM 36.7034 -94.3940 351° North  Level FlightAware Approximate
Fri 11:10:08 AM 36.3797 -94.4578 360° North 274 315 10,800  Level Kansas City Center
Fri 11:11:00 AM 36.7883 -94.4110 351° North  Level FlightAware Approximate
Fri 11:11:09 AM 36.4689 -94.4544 North 304 350 11,900  Level Kansas City Center
Fri 11:12:00 AM 36.8513 -94.3945 60° Northeast  Level FlightAware Approximate
Fri 11:12:10 AM 36.5686 -94.4497 North 339 390 13,400  Level Kansas City Center
Fri 11:13:14 AM 36.6711 -94.4444 North 360 414 14,900 1,597 Climbing Kansas City Center
Fri 11:14:14 AM 36.7939 -94.4392 North 366 421 16,700 1,548 Climbing Kansas City Center
Fri 11:15:18 AM 36.8794 -94.3700 33° Northeast 371 427 18,100 1,381 Climbing Kansas City Center
Fri 11:16:20 AM 36.9581 -94.2825 42° Northeast 374 430 19,600 1,475 Climbing Kansas City Center
Fri 11:17:20 AM 37.0347 -94.1964 42° Northeast 372 428 21,100 1,463 Climbing Kansas City Center
Fri 11:18:23 AM 37.1114 -94.1108 42° Northeast 370 426 22,600 1,403 Climbing Kansas City Center
Fri 11:19:24 AM 37.1969 -94.0186 41° Northeast 370 426 24,000 1,258 Climbing Kansas City Center
Fri 11:20:27 AM 37.2744 -93.9292 43° Northeast 376 433 25,200 1,161 Climbing Kansas City Center
Fri 11:21:28 AM 37.3531 -93.8419 41° Northeast 377 434 26,400 1,161 Climbing Kansas City Center
Fri 11:22:31 AM 37.4331 -93.7528 41° Northeast 381 438 27,600 1,258 Climbing Kansas City Center
Fri 11:23:32 AM 37.5283 -93.6447 42° Northeast 383 441 29,000 1,561 Climbing Kansas City Center
Fri 11:24:34 AM 37.6083 -93.5575 41° Northeast 380 437 30,800 1,381 Climbing Kansas City Center
Fri 11:25:38 AM 37.6839 -93.4714 42° Northeast 368 423 31,900 1,161 Climbing Kansas City Center
Fri 11:26:38 AM 37.7603 -93.3836 42° Northeast 369 425 33,200 1,131 Climbing Kansas City Center
Fri 11:27:40 AM 37.8358 -93.2983 42° Northeast 365 420 34,200 857 Climbing Kansas City Center
Fri 11:28:44 AM 37.9114 -93.2125 42° Northeast 363 418 35,000 387 Climbing Kansas City Center
Fri 11:29:44 AM 37.9886 -93.1231 42° Northeast 368 423 35,000  Level Kansas City Center
Fri 11:30:48 AM 38.0947 -93.0017 42° Northeast 415 478 35,000  Level Kansas City Center
Fri 11:31:49 AM 38.1856 -92.8964 42° Northeast 431 496 35,000  Level Kansas City Center
Fri 11:32:50 AM 38.2803 -92.7889 42° Northeast 444 511 35,000  Level Kansas City Center
Fri 11:33:54 AM 38.3717 -92.6808 43° Northeast 444 511 35,000  Level Kansas City Center
Fri 11:34:55 AM 38.4633 -92.5756 42° Northeast 442 509 35,000  Level Kansas City Center
Fri 11:35:59 AM 38.5547 -92.4697 42° Northeast 439 505 35,000  Level Kansas City Center
Fri 11:36:59 AM 38.6450 -92.3617 43° Northeast 440 506 35,000  Level Kansas City Center
Fri 11:38:02 AM 38.7358 -92.2550 42° Northeast 441 507 35,000  Level Kansas City Center
Fri 11:39:04 AM 38.8447 -92.1258 43° Northeast 442 509 35,000  Level Kansas City Center
Fri 11:40:04 AM 38.9358 -92.0178 43° Northeast 442 509 35,000  Level Kansas City Center
Fri 11:41:08 AM 39.0264 -91.9103 43° Northeast 443 510 35,000  Level Kansas City Center
Fri 11:42:09 AM 39.1167 -91.8022 43° Northeast 443 510 35,000  Level Kansas City Center
Fri 11:43:13 AM 39.2083 -91.6931 43° Northeast 444 511 35,000  Level Kansas City Center
Fri 11:44:13 AM 39.2972 -91.5831 44° Northeast 449 517 35,000  Level Kansas City Center
Fri 11:45:16 AM 39.3869 -91.4739 43° Northeast 447 514 35,000  Level Kansas City Center
Fri 11:46:17 AM 39.4953 -91.3433 43° Northeast 444 511 35,000 -528 Level Kansas City Center
Fri 11:47:21 AM 39.5872 -91.2311 43° Northeast 447 514 33,900 -960 Descending Kansas City Center
Fri 11:48:22 AM 39.6814 -91.1153 43° Northeast 456 525 33,000 -446 Descending Kansas City Center
Fri 11:49:22 AM 39.7883 -90.9997 40° Northeast 468 539 33,000  Level Kansas City Center
Fri 11:50:26 AM 39.8900 -90.8983 37° Northeast 475 547 33,000  Level Kansas City Center
Fri 11:51:27 AM 39.9961 -90.7928 37° Northeast 479 551 33,000  Level Kansas City Center
Fri 11:52:30 AM 40.1017 -90.6839 38° Northeast 481 554 33,000  Level Kansas City Center
Fri 11:53:31 AM 40.2319 -90.5542 37° Northeast 488 562 33,000  Level Kansas City Center
Fri 11:54:35 AM 40.3386 -90.4439 38° Northeast 488 562 33,000 -569 Level Kansas City Center
Fri 11:55:27 AM 40.4222 -90.3575 38° Northeast 482 555 31,900 -1,316 Descending Chicago Center
Fri 11:56:29 AM 40.5258 -90.2503 38° Northeast 463 533 30,500 -1,500 Descending Chicago Center
Fri 11:57:31 AM 40.6436 -90.1275 38° Northeast 454 522 28,800 -1,500 Descending Chicago Center
Fri 11:58:33 AM 40.7400 -90.0233 39° Northeast 450 518 27,400 -1,258 Descending Chicago Center
Fri 11:59:35 AM 40.8439 -89.9256 35° Northeast 451 519 26,200 -1,065 Descending Chicago Center
Fri 12:00:37 PM 40.9344 -89.8269 39° Northeast 426 490 25,200 -1,016 Descending Chicago Center
Fri 12:01:39 PM 41.0336 -89.7219 39° Northeast 426 490 24,100 -672 Descending Chicago Center
Fri 12:02:42 PM 41.1278 -89.6231 38° Northeast 430 495 23,800 -871 Descending Chicago Center
Fri 12:03:43 PM 41.2022 -89.4850 54° Northeast 466 536 22,300 -1,463 Descending Chicago Center
Fri 12:04:45 PM 41.2617 -89.3378 62° Northeast 456 525 20,800 -1,597 Descending Chicago Center
Fri 12:05:47 PM 41.3267 -89.1822 61° Northeast 442 509 19,000 -2,274 Descending Chicago Center
Fri 12:06:49 PM 41.3781 -89.0442 64° Northeast 424 488 16,100 -2,516 Descending Chicago Center
Fri 12:07:51 PM 41.4303 -88.9139 62° Northeast 405 466 13,800 -2,323 Descending Chicago Center
Fri 12:08:53 PM 41.4908 -88.7597 62° Northeast 394 453 11,300 -1,344 Descending Chicago Center
Fri 12:09:56 PM 41.5417 -88.6339 62° Northeast 389 448 11,000 -144 Descending Chicago Center
Fri 12:10:58 PM 41.5908 -88.5075 62° Northeast 389 448 11,000 -242 Level Chicago Center
Fri 12:12:00 PM 41.6528 -88.3914 54° Northeast 390 449 10,500 -484 Descending Chicago Center
Fri 12:13:02 PM 41.7189 -88.2769 52° Northeast 388 447 10,000 -242 Descending Chicago Center
Fri 12:14:04 PM 41.7811 -88.1689 52° Northeast 371 427 10,000 -677 Level Chicago Center
Fri 12:15:06 PM 41.8336 -88.0503 59° Northeast 315 362 8,600 -1,355 Descending Chicago Center
Fri 12:16:08 PM 41.8561 -87.9394 75° East 310 357 7,200 -774 Descending Chicago Center
Fri 12:17:10 PM 41.8761 -87.8419 75° East 276 318 7,000 -871 Descending Chicago Center
Fri 12:18:12 PM 41.8842 -87.7472 83° East 260 299 5,400 -1,355 Descending Chicago Center
Fri 12:19:14 PM 41.9089 -87.6636 68° East 267 307 4,200 -1,161 Descending Chicago Center

Login

Don't have an account? Register now (free) for customized features, flight alerts, and more!